Time;durP1;ratioP1;P1;durP2;ratioP2;P2;SDS_P1;SDS_P2;PMS_P1;PMS_P2;Temp;Humidity;BMP_temperature;BMP_pressure;BME280_temperature;BME280_humidity;BME280_pressure;Samples;Min_cycle;Max_cycle;Signal;HPM_P1;HPM_P2
2022/12/07 00:01:21;;;;;;;10.77;8.70;;;;;;;3.35;100.00;101790.84;5033041;28;20023;-55
2022/12/07 00:03:48;;;;;;;14.95;9.35;;;;;;;3.34;100.00;101795.19;5032734;28;20041;-56
2022/12/07 00:06:15;;;;;;;16.70;9.55;;;;;;;3.31;100.00;101794.44;5032833;28;20056;-54
2022/12/07 00:08:41;;;;;;;12.45;9.05;;;;;;;3.29;100.00;101798.88;5032702;28;20103;-53
2022/12/07 00:11:09;;;;;;;13.02;8.55;;;;;;;3.23;100.00;101789.44;5033232;28;20021;-57
2022/12/07 00:13:35;;;;;;;14.57;9.02;;;;;;;3.19;100.00;101795.69;5035764;28;20386;-52
2022/12/07 00:16:03;;;;;;;14.45;9.10;;;;;;;3.13;100.00;101793.22;5033192;28;20084;-53
2022/12/07 00:18:28;;;;;;;13.20;9.05;;;;;;;3.12;100.00;101794.16;5032377;28;20031;-53
2022/12/07 00:20:59;;;;;;;12.20;9.43;;;;;;;3.08;100.00;101787.25;5031833;28;20037;-57
2022/12/07 00:23:24;;;;;;;13.70;8.85;;;;;;;3.03;100.00;101783.91;5032804;28;20064;-54
2022/12/07 00:25:49;;;;;;;15.32;9.07;;;;;;;2.97;100.00;101785.81;5033188;28;20053;-52
2022/12/07 00:28:15;;;;;;;12.07;9.20;;;;;;;2.97;100.00;101782.34;5032479;28;20107;-53
2022/12/07 00:30:40;;;;;;;12.38;9.00;;;;;;;2.91;100.00;101774.66;5031457;28;20017;-55
2022/12/07 00:33:05;;;;;;;10.77;8.40;;;;;;;2.88;100.00;101774.75;5032833;28;20021;-53
2022/12/07 00:35:30;;;;;;;11.07;9.30;;;;;;;2.86;100.00;101771.31;5027028;28;20369;-57
2022/12/07 00:37:56;;;;;;;12.07;8.68;;;;;;;2.83;100.00;101769.66;5029252;28;20030;-56
2022/12/07 00:40:21;;;;;;;11.20;8.73;;;;;;;2.82;100.00;101770.53;5032393;28;20022;-56
2022/12/07 00:42:46;;;;;;;12.82;8.95;;;;;;;2.80;100.00;101764.50;5032097;28;20032;-54
2022/12/07 00:45:12;;;;;;;11.02;8.48;;;;;;;2.81;100.00;101770.59;5032320;28;20029;-54
2022/12/07 00:47:37;;;;;;;11.10;8.57;;;;;;;2.78;100.00;101776.75;5032268;28;20033;-55
2022/12/07 00:50:03;;;;;;;12.35;9.13;;;;;;;2.75;100.00;101777.72;5032177;28;20033;-56
2022/12/07 00:52:28;;;;;;;13.38;8.93;;;;;;;2.73;100.00;101774.31;5031841;28;20029;-56
2022/12/07 00:54:53;;;;;;;15.10;8.85;;;;;;;2.72;100.00;101775.19;5032306;28;20131;-56
2022/12/07 00:57:18;;;;;;;10.88;8.27;;;;;;;2.70;100.00;101773.53;5032108;28;20021;-57
2022/12/07 00:59:44;;;;;;;13.10;8.43;;;;;;;2.67;100.00;101778.88;5032424;28;20373;-56
2022/12/07 01:02:09;;;;;;;11.55;7.80;;;;;;;2.66;100.00;101770.13;5032167;28;20033;-56
2022/12/07 01:04:34;;;;;;;13.20;8.40;;;;;;;2.64;100.00;101774.56;5031786;28;20037;-56
2022/12/07 01:07:00;;;;;;;9.73;8.00;;;;;;;2.59;100.00;101772.06;5038458;28;20025;-58
2022/12/07 01:09:25;;;;;;;10.70;8.07;;;;;;;2.57;100.00;101770.38;5032157;28;20114;-53
2022/12/07 01:11:50;;;;;;;9.23;7.63;;;;;;;2.55;100.00;101773.06;5031560;28;20018;-53
2022/12/07 01:14:16;;;;;;;11.43;8.32;;;;;;;2.55;100.00;101778.31;5033071;28;20025;-54
2022/12/07 01:16:41;;;;;;;13.52;7.53;;;;;;;2.53;100.00;101768.75;5028162;28;20387;-53
2022/12/07 01:19:06;;;;;;;13.50;8.00;;;;;;;2.51;100.00;101768.78;5032197;28;20029;-56
2022/12/07 01:21:37;;;;;;;10.13;7.85;;;;;;;2.49;100.00;101775.00;5031771;28;20079;-55
2022/12/07 01:24:04;;;;;;;11.57;7.93;;;;;;;2.48;100.00;101768.00;5032158;28;20021;-54
2022/12/07 01:26:30;;;;;;;13.70;8.15;;;;;;;2.46;100.00;101772.44;5029227;28;20476;-53
2022/12/07 01:28:56;;;;;;;10.07;8.10;;;;;;;2.46;100.00;101773.28;5031768;28;20115;-53
2022/12/07 01:31:24;;;;;;;11.73;7.30;;;;;;;2.45;100.00;101773.34;5028660;28;20060;-56
2022/12/07 01:33:53;;;;;;;9.55;8.25;;;;;;;2.46;100.00;101769.81;5032485;28;20056;-55
2022/12/07 01:36:20;;;;;;;16.13;9.57;;;;;;;2.47;100.00;101771.56;5031516;28;20026;-53
2022/12/07 01:38:47;;;;;;;12.70;8.48;;;;;;;2.47;100.00;101768.94;5031911;28;20064;-55
2022/12/07 01:41:14;;;;;;;12.07;8.80;;;;;;;2.48;100.00;101768.91;5034042;28;20017;-55
2022/12/07 01:44:16;;;;;;;12.35;8.82;;;;;;;2.49;100.00;101783.72;5041580;28;20494;-57
2022/12/07 01:47:02;;;;;;;12.15;8.00;;;;;;;2.50;100.00;101781.94;5032398;28;20494;-54
2022/12/07 01:49:31;;;;;;;10.68;8.13;;;;;;;2.47;100.00;101782.91;5031014;28;20056;-55
2022/12/07 01:52:14;;;;;;;9.75;8.13;;;;;;;2.49;100.00;101780.22;5032819;28;20087;-53
2022/12/07 01:54:41;;;;;;;12.18;8.98;;;;;;;2.48;100.00;101773.25;5034107;28;20029;-55
2022/12/07 01:57:08;;;;;;;12.43;8.73;;;;;;;2.47;100.00;101771.56;5034864;28;20037;-55
2022/12/07 01:59:33;;;;;;;13.43;9.05;;;;;;;2.47;100.00;101766.31;5025742;28;20574;-53
2022/12/07 02:02:02;;;;;;;13.82;8.85;;;;;;;2.48;100.00;101774.13;5033567;28;20116;-55
2022/12/07 02:04:28;;;;;;;13.40;9.65;;;;;;;2.49;100.00;101761.88;5029739;28;20028;-55
2022/12/07 02:06:55;;;;;;;12.38;8.25;;;;;;;2.47;100.00;101761.91;5039658;28;20159;-56
2022/12/07 02:09:20;;;;;;;10.98;8.75;;;;;;;2.50;100.00;101763.56;5035367;28;20029;-56
2022/12/07 02:11:45;;;;;;;12.82;9.30;;;;;;;2.49;100.00;101760.09;5034057;28;20041;-55
2022/12/07 02:14:11;;;;;;;12.75;9.68;;;;;;;2.49;100.00;101764.50;5035133;28;20371;-56
2022/12/07 02:16:52;;;;;;;11.90;8.32;;;;;;;2.48;100.00;101754.91;5034867;28;20021;-54
2022/12/07 02:20:00;;;;;;;11.45;8.50;;;;;;;2.49;100.00;101765.34;5034720;28;20032;-56
2022/12/07 02:22:50;;;;;;;14.63;8.43;;;;;;;2.47;100.00;101754.06;5023692;28;20040;-57
2022/12/07 02:25:34;;;;;;;11.43;8.60;;;;;;;2.45;100.00;101760.22;5034195;28;20026;-54
2022/12/07 02:28:08;;;;;;;11.57;8.07;;;;;;;2.46;100.00;101767.19;5034844;28;20125;-53
2022/12/07 02:30:40;;;;;;;12.40;8.30;;;;;;;2.42;100.00;101757.72;5034756;28;20048;-52
2022/12/07 02:33:14;;;;;;;12.57;8.10;;;;;;;2.42;100.00;101757.72;5034647;28;20123;-57
2022/12/07 02:35:41;;;;;;;10.05;7.97;;;;;;;2.42;100.00;101762.97;5031226;28;20038;-54
2022/12/07 02:38:33;;;;;;;11.23;7.70;;;;;;;2.40;100.00;101757.75;5034576;28;20021;-51
2022/12/07 02:41:12;;;;;;;8.93;7.55;;;;;;;2.37;100.00;101756.06;5034222;28;20036;-56
2022/12/07 02:43:45;;;;;;;15.55;7.43;;;;;;;2.35;100.00;101754.41;5038258;28;20037;-56
2022/12/07 02:46:16;;;;;;;9.38;7.43;;;;;;;2.34;100.00;101756.16;5031895;28;20026;-53
2022/12/07 02:51:46;;;;;;;9.35;6.50;;;;;;;2.32;100.00;101760.56;5034162;28;20036;-55
2022/12/07 02:54:13;;;;;;;8.63;6.82;;;;;;;2.29;100.00;101760.66;5034141;28;20034;-52
2022/12/07 02:56:44;;;;;;;10.45;7.40;;;;;;;2.29;100.00;101752.78;5034522;28;20501;-53
2022/12/07 02:59:47;;;;;;;9.57;7.05;;;;;;;2.31;100.00;101756.22;5033663;28;20170;-53
2022/12/07 03:02:28;;;;;;;9.40;6.75;;;;;;;2.30;100.00;101764.13;5034489;28;20026;-54
2022/12/07 03:05:30;;;;;;;15.15;7.53;;;;;;;2.30;100.00;101761.50;5033785;28;20072;-56
2022/12/07 03:08:13;;;;;;;13.70;7.38;;;;;;;2.29;100.00;101758.03;5026247;28;20037;-55
2022/12/07 03:10:55;;;;;;;10.40;7.18;;;;;;;2.27;100.00;101759.00;5027658;28;20443;-54
2022/12/07 03:13:39;;;;;;;11.32;6.93;;;;;;;2.24;100.00;101759.94;5029302;28;20025;-55
2022/12/07 03:16:25;;;;;;;9.57;7.05;;;;;;;2.24;100.00;101761.69;5031285;28;20556;-54
2022/12/07 03:18:56;;;;;;;11.68;7.57;;;;;;;2.20;100.00;101756.53;5034190;28;20033;-56
2022/12/07 03:21:29;;;;;;;10.23;6.70;;;;;;;2.21;100.00;101762.63;5033867;28;20108;-55
2022/12/07 03:23:58;;;;;;;10.70;7.15;;;;;;;2.19;100.00;101753.94;5023360;28;20531;-53
2022/12/07 03:26:37;;;;;;;12.90;7.15;;;;;;;2.19;100.00;101751.34;5033268;28;20041;-51
2022/12/07 03:29:09;;;;;;;8.15;5.55;;;;;;;2.17;100.00;101748.75;5042155;28;20030;-54
2022/12/07 03:31:40;;;;;;;9.40;6.72;;;;;;;2.15;100.00;101742.69;5035686;28;20391;-56
2022/12/07 03:34:26;;;;;;;12.40;6.97;;;;;;;2.16;100.00;101748.78;5034048;28;20089;-55
2022/12/07 03:37:03;;;;;;;12.27;6.95;;;;;;;2.12;100.00;101748.00;5031108;28;20033;-54
2022/12/07 03:39:36;;;;;;;11.82;7.38;;;;;;;2.13;100.00;101748.88;5029623;28;20034;-52
2022/12/07 03:42:04;;;;;;;7.40;6.63;;;;;;;2.11;100.00;101748.06;5030169;28;20029;-54
2022/12/07 03:44:30;;;;;;;9.02;7.18;;;;;;;2.11;100.00;101753.28;5031060;28;20468;-57
2022/12/07 03:47:08;;;;;;;9.48;6.22;;;;;;;2.09;100.00;101742.84;5032725;28;20025;-53
2022/12/07 03:49:45;;;;;;;10.48;6.93;;;;;;;2.10;100.00;101752.44;5032908;28;20394;-55
2022/12/07 03:52:35;;;;;;;8.27;6.20;;;;;;;2.11;100.00;101754.16;5034033;28;20384;-55
2022/12/07 03:55:11;;;;;;;10.30;6.45;;;;;;;2.09;100.00;101755.09;5033776;28;20442;-55
2022/12/07 03:57:39;;;;;;;9.07;6.10;;;;;;;2.10;100.00;101756.81;5032871;28;20021;-54
2022/12/07 04:00:06;;;;;;;9.20;6.70;;;;;;;2.09;100.00;101763.81;5033234;28;20036;-53
2022/12/07 04:02:33;;;;;;;13.00;6.55;;;;;;;2.08;100.00;101746.34;5032878;28;20071;-54
2022/12/07 04:04:58;;;;;;;9.60;6.40;;;;;;;2.09;100.00;101752.47;5033142;28;20091;-52
2022/12/07 04:07:25;;;;;;;10.38;6.63;;;;;;;2.09;100.00;101748.09;5030345;28;20033;-54
2022/12/07 04:09:50;;;;;;;8.35;6.45;;;;;;;2.09;100.00;101742.84;5032839;28;20468;-56
2022/12/07 04:12:16;;;;;;;9.35;6.50;;;;;;;2.11;100.00;101748.91;5032879;28;20057;-56
2022/12/07 04:14:41;;;;;;;12.88;7.30;;;;;;;2.12;100.00;101748.00;5038109;28;20372;-54
2022/12/07 04:17:06;;;;;;;11.07;6.78;;;;;;;2.13;100.00;101754.09;5032797;28;20076;-63
2022/12/07 04:19:34;;;;;;;12.48;7.07;;;;;;;2.14;100.00;101750.59;5037698;28;20041;-63
2022/12/07 04:22:01;;;;;;;11.45;7.22;;;;;;;2.14;100.00;101743.59;5033217;28;20048;-55
2022/12/07 04:24:27;;;;;;;8.48;6.70;;;;;;;2.16;100.00;101747.00;5032829;28;20026;-54
2022/12/07 04:26:52;;;;;;;15.20;7.45;;;;;;;2.17;100.00;101742.66;5032139;28;20045;-55
2022/12/07 04:29:18;;;;;;;13.10;7.55;;;;;;;2.18;100.00;101745.25;5032836;28;20087;-56
2022/12/07 04:31:44;;;;;;;9.30;6.82;;;;;;;2.20;100.00;101739.97;5031988;28;20029;-55
2022/12/07 04:34:11;;;;;;;12.48;6.97;;;;;;;2.21;100.00;101741.66;5032917;28;20502;-54
2022/12/07 04:36:37;;;;;;;13.70;7.30;;;;;;;2.22;100.00;101731.13;5027026;28;20041;-53
2022/12/07 04:39:04;;;;;;;11.73;7.38;;;;;;;2.24;100.00;101736.34;5037760;28;20033;-56
2022/12/07 04:41:29;;;;;;;14.00;7.95;;;;;;;2.25;100.00;101740.69;5032370;28;20029;-52
2022/12/07 04:44:00;;;;;;;9.05;7.82;;;;;;;2.27;100.00;101735.41;5031690;28;20044;-55
2022/12/07 04:46:27;;;;;;;13.82;8.15;;;;;;;2.29;100.00;101739.69;5032403;28;20026;-52
2022/12/07 04:48:53;;;;;;;12.30;8.10;;;;;;;2.29;100.00;101737.06;5032429;28;20022;-54
2022/12/07 04:51:22;;;;;;;12.52;7.75;;;;;;;2.31;100.00;101737.03;5031831;28;20034;-53
2022/12/07 04:53:47;;;;;;;10.90;8.20;;;;;;;2.32;100.00;101744.00;5032810;28;20106;-55
2022/12/07 04:56:14;;;;;;;11.60;7.88;;;;;;;2.35;100.00;101746.53;5030935;28;20021;-53
2022/12/07 04:58:40;;;;;;;11.38;7.80;;;;;;;2.36;100.00;101738.59;5026123;28;20121;-55
2022/12/07 05:01:06;;;;;;;13.40;9.00;;;;;;;2.38;100.00;101730.69;5032304;28;20100;-53
2022/12/07 05:03:31;;;;;;;15.70;8.27;;;;;;;2.40;100.00;101726.28;5029475;28;20033;-56
2022/12/07 05:05:56;;;;;;;15.63;8.73;;;;;;;2.42;100.00;101721.84;5033154;28;20026;-52
2022/12/07 05:08:22;;;;;;;14.27;8.38;;;;;;;2.44;100.00;101717.44;5031894;28;20040;-59
2022/12/07 05:10:49;;;;;;;14.50;8.48;;;;;;;2.45;100.00;101724.41;5031872;28;20037;-55
2022/12/07 05:13:14;;;;;;;15.57;8.20;;;;;;;2.49;100.00;101714.69;5033046;28;20033;-53
2022/12/07 05:15:40;;;;;;;13.73;8.15;;;;;;;2.51;100.00;101720.72;5032062;28;20025;-54
2022/12/07 05:18:05;;;;;;;11.38;7.22;;;;;;;2.51;100.00;101728.59;5031358;28;20025;-53
2022/12/07 05:20:31;;;;;;;12.45;7.38;;;;;;;2.52;100.00;101725.09;5032273;28;20069;-53
2022/12/07 05:22:58;;;;;;;14.82;7.85;;;;;;;2.53;100.00;101719.78;5031745;28;20037;-55
2022/12/07 05:25:23;;;;;;;12.02;6.93;;;;;;;2.55;100.00;101717.13;5033055;28;20483;-53
2022/12/07 05:27:49;;;;;;;11.85;7.20;;;;;;;2.52;100.00;101715.44;5039893;28;20046;-54
2022/12/07 05:30:14;;;;;;;13.00;7.13;;;;;;;2.54;100.00;101721.50;5035794;28;20021;-54
2022/12/07 05:32:40;;;;;;;10.43;6.93;;;;;;;2.54;100.00;101718.88;5036002;28;20108;-55
2022/12/07 05:35:05;;;;;;;11.77;6.43;;;;;;;2.53;100.00;101726.78;5034954;28;20040;-52
2022/12/07 05:37:31;;;;;;;10.20;6.00;;;;;;;2.53;100.00;101724.16;5036031;28;20112;-55
2022/12/07 05:39:56;;;;;;;13.75;5.90;;;;;;;2.52;100.00;101722.47;5035422;28;20041;-53
2022/12/07 05:42:22;;;;;;;11.40;6.53;;;;;;;2.52;100.00;101712.81;5036027;28;20038;-53
2022/12/07 05:44:47;;;;;;;7.82;5.63;;;;;;;2.50;100.00;101711.13;5038970;28;20476;-56
2022/12/07 05:47:14;;;;;;;8.45;5.70;;;;;;;2.48;100.00;101716.44;5035970;28;20034;-54
2022/12/07 05:49:40;;;;;;;7.00;4.93;;;;;;;2.46;100.00;101707.75;5033936;28;20026;-55
2022/12/07 05:52:05;;;;;;;10.95;5.10;;;;;;;2.44;100.00;101711.34;5035914;28;20442;-52
2022/12/07 05:54:31;;;;;;;8.60;4.95;;;;;;;2.42;100.00;101706.13;5035098;28;20032;-53
2022/12/07 05:56:57;;;;;;;11.93;4.80;;;;;;;2.40;100.00;101705.31;5035761;28;20106;-56
2022/12/07 05:59:22;;;;;;;9.27;4.85;;;;;;;2.38;100.00;101715.84;5034793;28;20040;-52
2022/12/07 06:01:54;;;;;;;7.22;5.40;;;;;;;2.37;100.00;101710.66;5035363;28;20030;-57
2022/12/07 06:04:20;;;;;;;7.88;5.05;;;;;;;2.33;100.00;101717.75;5035034;28;20476;-53
2022/12/07 06:06:45;;;;;;;6.53;4.82;;;;;;;2.31;100.00;101716.91;5035313;28;20495;-56
2022/12/07 06:09:12;;;;;;;11.82;5.22;;;;;;;2.28;100.00;101716.13;5034733;28;20022;-52
2022/12/07 06:14:21;;;;;;;7.95;5.10;;;;;;;2.25;100.00;101716.22;5035422;28;20119;-53
2022/12/07 06:16:47;;;;;;;9.55;5.60;;;;;;;2.21;100.00;101718.06;5034825;28;20025;-55
2022/12/07 06:19:12;;;;;;;9.55;5.40;;;;;;;2.17;100.00;101719.91;5034159;28;20479;-53
2022/12/07 06:21:37;;;;;;;10.90;5.38;;;;;;;2.15;100.00;101720.84;5030548;28;20364;-55
2022/12/07 06:24:03;;;;;;;10.77;5.45;;;;;;;2.14;100.00;101724.38;5035085;28;20025;-54
2022/12/07 06:26:28;;;;;;;10.30;6.15;;;;;;;2.12;100.00;101721.81;5034717;28;20480;-56
2022/12/07 06:28:54;;;;;;;14.75;5.88;;;;;;;2.11;100.00;101724.47;5032750;28;20021;-54
2022/12/07 06:31:19;;;;;;;7.15;5.32;;;;;;;2.10;100.00;101728.84;5035175;28;20034;-55
2022/12/07 06:33:44;;;;;;;9.35;5.15;;;;;;;2.07;100.00;101723.69;5035089;28;20022;-52
2022/12/07 06:36:11;;;;;;;9.80;5.35;;;;;;;2.04;100.00;101713.28;5034892;28;20022;-55
2022/12/07 06:38:37;;;;;;;10.38;5.30;;;;;;;2.03;100.00;101722.94;5039675;28;20044;-55
2022/12/07 06:41:02;;;;;;;9.00;5.50;;;;;;;2.01;100.00;101722.09;5037732;28;20384;-53
2022/12/07 06:43:27;;;;;;;9.30;5.47;;;;;;;1.99;100.00;101726.50;5034276;28;20029;-54
2022/12/07 06:45:53;;;;;;;7.13;5.43;;;;;;;1.97;100.00;101723.06;5034657;28;20386;-55
2022/12/07 06:48:18;;;;;;;7.45;5.38;;;;;;;1.96;100.00;101726.59;5034780;28;20068;-55
2022/12/07 06:50:45;;;;;;;8.80;5.28;;;;;;;1.96;100.00;101723.97;5034099;28;20545;-53
2022/12/07 06:53:10;;;;;;;8.75;5.85;;;;;;;1.98;100.00;101721.31;5031946;28;20021;-56
2022/12/07 06:55:36;;;;;;;10.65;5.65;;;;;;;1.97;100.00;101722.22;5024312;28;20030;-50
2022/12/07 06:58:02;;;;;;;8.90;5.70;;;;;;;1.96;100.00;101720.50;5033937;28;20061;-50
2022/12/07 07:00:28;;;;;;;14.27;6.13;;;;;;;1.95;100.00;101721.38;5033866;28;20048;-55
2022/12/07 07:02:53;;;;;;;11.95;6.00;;;;;;;1.93;100.00;101723.19;5035940;28;20472;-54
2022/12/07 07:05:21;;;;;;;8.82;5.45;;;;;;;1.92;100.00;101724.13;5029917;28;20028;-56
2022/12/07 07:07:47;;;;;;;11.55;6.00;;;;;;;1.91;100.00;101719.75;5031158;28;20461;-54
2022/12/07 07:10:13;;;;;;;9.90;5.63;;;;;;;1.90;100.00;101723.25;5030000;28;20032;-52
2022/12/07 07:12:38;;;;;;;11.98;5.80;;;;;;;1.88;100.00;101725.06;5034092;28;20041;-52
2022/12/07 07:15:04;;;;;;;9.20;5.38;;;;;;;1.88;100.00;101732.94;5028767;28;20033;-54
2022/12/07 07:17:29;;;;;;;6.55;5.50;;;;;;;1.87;100.00;101737.31;5028742;28;20057;-53
2022/12/07 07:19:54;;;;;;;11.35;5.78;;;;;;;1.86;100.00;101727.72;5027428;28;20037;-52
2022/12/07 07:22:20;;;;;;;8.23;5.63;;;;;;;1.84;100.00;101730.38;5029759;28;20045;-52
2022/12/07 07:24:45;;;;;;;8.57;5.75;;;;;;;1.83;100.00;101730.44;5029193;28;20026;-53
2022/12/07 07:27:10;;;;;;;9.52;5.75;;;;;;;1.83;100.00;101730.44;5029768;28;20111;-57
2022/12/07 07:29:36;;;;;;;12.70;5.78;;;;;;;1.84;100.00;101733.00;5027797;28;20040;-56
2022/12/07 07:32:01;;;;;;;9.77;5.78;;;;;;;1.82;100.00;101733.97;5030578;28;20048;-53
2022/12/07 07:34:26;;;;;;;12.63;6.28;;;;;;;1.82;100.00;101733.97;5026983;28;20030;-54
2022/12/07 07:36:51;;;;;;;9.45;5.72;;;;;;;1.83;100.00;101735.66;5031365;28;20542;-53
2022/12/07 07:39:17;;;;;;;10.00;5.40;;;;;;;1.81;100.00;101737.47;5027390;28;20035;-56
2022/12/07 07:41:42;;;;;;;7.53;5.75;;;;;;;1.82;100.00;101741.81;5028804;28;20434;-52
2022/12/07 07:44:07;;;;;;;8.05;5.72;;;;;;;1.80;100.00;101736.63;5029229;28;20021;-54
2022/12/07 07:46:33;;;;;;;12.57;6.45;;;;;;;1.82;100.00;101736.59;5028397;28;20033;-52
2022/12/07 07:48:58;;;;;;;7.72;5.88;;;;;;;1.81;100.00;101742.72;5028766;28;20040;-54
2022/12/07 07:51:23;;;;;;;10.63;6.18;;;;;;;1.81;100.00;101742.72;5027189;28;20045;-54
2022/12/07 07:53:48;;;;;;;10.40;5.82;;;;;;;1.79;100.00;101744.50;5029896;28;20379;-54
2022/12/07 07:56:14;;;;;;;14.00;6.28;;;;;;;1.78;100.00;101737.53;5028387;28;20029;-56
2022/12/07 07:58:39;;;;;;;8.63;6.22;;;;;;;1.77;100.00;101738.47;5028945;28;20033;-54
2022/12/07 08:01:06;;;;;;;11.02;6.20;;;;;;;1.74;100.00;101728.06;5030505;28;20151;-53
2022/12/07 08:03:31;;;;;;;10.82;6.18;;;;;;;1.76;100.00;101734.13;5029070;28;20021;-56
2022/12/07 08:05:57;;;;;;;10.95;6.20;;;;;;;1.74;100.00;101739.38;5028234;28;20068;-55
2022/12/07 08:08:22;;;;;;;11.07;6.45;;;;;;;1.74;100.00;101741.16;5028952;28;20045;-53
2022/12/07 08:10:47;;;;;;;13.18;5.88;;;;;;;1.74;100.00;101744.63;5028503;28;20383;-53
2022/12/07 08:13:20;;;;;;;10.27;5.93;;;;;;;1.75;100.00;101748.09;5065109;27;20742;-52
2022/12/07 08:15:47;;;;;;;10.18;6.35;;;;;;;1.74;100.00;101746.41;5064121;28;20055;-55
2022/12/07 08:18:14;;;;;;;15.45;5.63;;;;;;;1.72;100.00;101750.81;5066206;27;20045;-53
2022/12/07 08:20:40;;;;;;;11.68;6.18;;;;;;;1.73;100.00;101744.66;5064084;28;20124;-54
2022/12/07 08:23:07;;;;;;;9.32;6.55;;;;;;;1.74;100.00;101756.88;5066462;27;20182;-51
2022/12/07 08:25:33;;;;;;;9.30;5.75;;;;;;;1.74;100.00;101759.50;5063736;28;20112;-53
2022/12/07 08:27:58;;;;;;;11.15;6.60;;;;;;;1.77;100.00;101757.66;5064915;27;20111;-52
2022/12/07 08:30:23;;;;;;;11.57;6.75;;;;;;;1.78;100.00;101755.88;5065394;28;20025;-55
2022/12/07 08:32:49;;;;;;;14.80;6.97;;;;;;;1.79;100.00;101761.09;5066274;27;20041;-52
2022/12/07 08:35:15;;;;;;;11.43;6.70;;;;;;;1.83;100.00;101767.09;5062970;28;20025;-52
2022/12/07 08:37:41;;;;;;;12.90;6.40;;;;;;;1.84;100.00;101764.44;5057552;28;20021;-51
2022/12/07 08:40:08;;;;;;;10.27;6.10;;;;;;;1.87;100.00;101763.53;5067246;28;20644;-55
2022/12/07 08:42:42;;;;;;;10.90;7.07;;;;;;;1.91;100.00;101766.91;5066838;28;20032;-56
2022/12/07 08:45:10;;;;;;;14.20;6.45;;;;;;;1.96;100.00;101772.91;5066144;28;20033;-52
2022/12/07 08:47:38;;;;;;;9.02;6.05;;;;;;;1.99;100.00;101772.81;5062991;28;20080;-57
2022/12/07 08:50:07;;;;;;;9.45;6.53;;;;;;;2.05;100.00;101770.06;5065997;28;20104;-56
2022/12/07 08:52:35;;;;;;;16.20;7.30;;;;;;;2.11;100.00;101769.03;5062224;28;20025;-58
2022/12/07 08:55:01;;;;;;;16.00;8.73;;;;;;;2.18;100.00;101765.31;5067002;28;20017;-58
2022/12/07 08:57:27;;;;;;;15.98;9.20;;;;;;;2.24;100.00;101766.94;5066677;28;20035;-57
2022/12/07 08:59:53;;;;;;;13.48;8.93;;;;;;;2.29;100.00;101762.44;5071290;28;20479;-57
2022/12/07 09:02:19;;;;;;;14.50;8.30;;;;;;;2.34;100.00;101761.38;5063189;28;20029;-57
2022/12/07 09:04:44;;;;;;;17.00;8.30;;;;;;;2.38;100.00;101756.91;5066956;28;20436;-57
2022/12/07 09:07:10;;;;;;;13.52;9.00;;;;;;;2.42;100.00;101755.94;5064960;28;20111;-58
2022/12/07 09:09:35;;;;;;;10.88;7.60;;;;;;;2.47;100.00;101753.19;5062937;28;20051;-58
2022/12/07 09:12:01;;;;;;;13.88;8.52;;;;;;;2.52;100.00;101756.56;5060616;28;20102;-57
2022/12/07 09:14:26;;;;;;;15.75;7.97;;;;;;;2.56;100.00;101752.94;5057745;28;20021;-57
2022/12/07 09:16:51;;;;;;;16.02;8.20;;;;;;;2.62;100.00;101749.28;5045468;28;20043;-57
2022/12/07 09:19:17;;;;;;;18.63;8.93;;;;;;;2.66;100.00;101753.53;5046393;28;20025;-58
2022/12/07 09:21:42;;;;;;;15.73;8.27;;;;;;;2.70;100.00;101749.94;5068132;28;20036;-59
2022/12/07 09:24:08;;;;;;;15.77;8.15;;;;;;;2.74;100.00;101747.13;5056601;28;20039;-55
2022/12/07 09:26:35;;;;;;;14.85;7.35;;;;;;;2.77;100.00;101752.31;5048900;28;20036;-54
2022/12/07 09:29:01;;;;;;;14.43;7.15;;;;;;;2.82;100.00;101748.69;5050269;28;20063;-57
2022/12/07 09:31:26;;;;;;;11.65;7.00;;;;;;;2.84;100.00;101752.13;5054283;28;20522;-57
2022/12/07 09:34:00;;;;;;;11.57;6.38;;;;;;;2.86;100.00;101752.94;5049015;28;20064;-55
2022/12/07 09:36:26;;;;;;;18.70;6.40;;;;;;;2.86;100.00;101756.41;5049658;28;20029;-55
2022/12/07 09:38:52;;;;;;;12.40;6.35;;;;;;;2.88;100.00;101754.63;5049032;28;20037;-58
2022/12/07 09:41:18;;;;;;;9.75;6.20;;;;;;;2.89;100.00;101760.72;5039921;28;20022;-54
2022/12/07 09:43:43;;;;;;;12.23;6.35;;;;;;;2.94;100.00;101759.66;5044589;28;20092;-58
2022/12/07 09:46:14;;;;;;;13.23;6.22;;;;;;;2.98;100.00;101755.19;5039316;28;20056;-58
2022/12/07 09:48:42;;;;;;;13.75;6.82;;;;;;;3.09;100.00;101749.63;5044878;28;20137;-56
2022/12/07 09:51:16;;;;;;;14.13;6.78;;;;;;;3.16;100.00;101751.13;5045820;28;20035;-57
2022/12/07 09:53:42;;;;;;;14.38;6.32;;;;;;;3.25;100.00;101745.63;5036721;28;20033;-57
2022/12/07 09:56:12;;;;;;;10.75;6.35;;;;;;;3.39;100.00;101754.81;5051346;28;20029;-57
2022/12/07 09:58:38;;;;;;;17.65;6.63;;;;;;;3.51;100.00;101744.78;5044710;28;20475;-56
2022/12/07 10:01:13;;;;;;;13.43;6.28;;;;;;;3.65;100.00;101746.97;5046834;28;20074;-58
2022/12/07 10:03:42;;;;;;;12.18;6.32;;;;;;;3.76;100.00;101745.72;5042854;28;20036;-56
2022/12/07 10:06:12;;;;;;;11.07;6.07;;;;;;;3.80;100.00;101747.38;5042156;28;20032;-58
2022/12/07 10:08:37;;;;;;;9.93;4.90;;;;;;;3.84;100.00;101741.06;5040920;28;20033;-60
2022/12/07 10:11:03;;;;;;;14.82;5.53;;;;;;;3.87;100.00;101740.97;5041568;28;20059;-57
2022/12/07 10:13:45;;;;;;;8.52;4.70;;;;;;;3.93;100.00;101732.00;5041747;28;20092;-57
2022/12/07 10:16:40;;;;;;;11.75;5.60;;;;;;;4.00;100.00;101728.28;5038166;28;20037;-57
2022/12/07 10:19:20;;;;;;;9.13;5.15;;;;;;;4.06;100.00;101728.03;5031357;28;20048;-58
2022/12/07 10:22:04;;;;;;;8.80;4.70;;;;;;;4.14;100.00;101727.78;5041970;28;20386;-57
2022/12/07 10:24:29;;;;;;;13.15;5.20;;;;;;;4.20;100.00;101723.16;5050381;28;20026;-58
2022/12/07 10:26:55;;;;;;;12.15;5.10;;;;;;;4.24;100.00;101723.91;5044082;28;20025;-58
2022/12/07 10:29:33;;;;;;;12.52;5.30;;;;;;;4.28;100.00;101724.66;5052190;28;20479;-57
2022/12/07 10:32:30;;;;;;;12.73;5.05;;;;;;;4.31;100.00;101717.50;5048418;28;20116;-57
2022/12/07 10:35:17;;;;;;;12.70;5.07;;;;;;;4.36;100.00;101709.47;5044378;28;20053;-55
2022/12/07 10:37:42;;;;;;;7.03;4.93;;;;;;;4.35;100.00;101700.72;5055677;28;20033;-57
2022/12/07 10:40:23;;;;;;;10.38;5.68;;;;;;;4.42;100.00;101701.34;5044888;28;20025;-58
2022/12/07 10:43:03;;;;;;;11.57;4.35;;;;;;;4.43;100.00;101709.19;5051288;28;20025;-59
2022/12/07 10:45:29;;;;;;;11.07;5.68;;;;;;;4.48;100.00;101701.13;5047478;28;20094;-54
2022/12/07 10:48:07;;;;;;;13.45;6.15;;;;;;;4.57;100.00;101697.28;5050838;28;20108;-58
2022/12/07 10:50:54;;;;;;;9.43;6.05;;;;;;;4.71;100.00;101700.22;5046724;28;20039;-57
2022/12/07 10:53:34;;;;;;;10.02;4.80;;;;;;;4.83;100.00;101704.19;5042476;28;20052;-54
2022/12/07 10:56:22;;;;;;;12.00;4.10;;;;;;;4.95;100.00;101689.69;5048232;28;20035;-59
2022/12/07 10:59:10;;;;;;;9.65;4.70;;;;;;;5.03;100.00;101692.00;5050427;28;20550;-57
2022/12/07 11:01:45;;;;;;;15.50;5.10;;;;;;;5.09;100.00;101683.88;5051145;28;20082;-59
2022/12/07 11:04:20;;;;;;;13.65;4.40;;;;;;;5.11;100.00;101682.91;5050469;28;20025;-59
2022/12/07 11:06:57;;;;;;;11.40;4.47;;;;;;;5.15;100.00;101678.38;5052071;28;20024;-55
2022/12/07 11:09:38;;;;;;;8.68;3.90;;;;;;;5.22;100.00;101677.19;5050763;28;20032;-59
2022/12/07 11:12:22;;;;;;;10.63;4.60;;;;;;;5.28;100.00;101679.56;5042994;28;20507;-57
2022/12/07 11:14:53;;;;;;;11.27;4.18;;;;;;;5.33;100.00;101679.41;5040472;28;20497;-58
2022/12/07 11:17:47;;;;;;;10.10;4.05;;;;;;;5.38;100.00;101666.88;5040901;28;20495;-58
2022/12/07 11:20:37;;;;;;;11.15;4.10;;;;;;;5.43;100.00;101664.03;5047811;28;20025;-57
2022/12/07 11:23:30;;;;;;;7.93;3.70;;;;;;;5.50;100.00;101662.88;5035131;28;20036;-55
2022/12/07 11:26:14;;;;;;;10.80;3.80;;;;;;;5.57;100.00;101652.00;5034699;28;20421;-56
2022/12/07 11:29:00;;;;;;;10.68;3.80;;;;;;;5.61;100.00;101657.13;5047405;28;20029;-58
2022/12/07 11:31:49;;;;;;;13.73;3.83;;;;;;;5.66;100.00;101655.16;5036300;28;20074;-57
2022/12/07 11:34:29;;;;;;;9.50;3.17;;;;;;;5.69;100.00;101652.41;5050675;28;20033;-58
2022/12/07 11:36:56;;;;;;;9.50;3.78;;;;;;;5.71;100.00;101643.50;5051177;28;20056;-57